sensor_id;sensor_type;location;lat;lon;timestamp;P1;durP1;ratioP1;P2;durP2;ratioP2
2658;SDS011;1339;53.304;10.406;2023-03-21T00:02:02;30.85;;;22.50;;
2658;SDS011;1339;53.304;10.406;2023-03-21T00:04:30;25.60;;;20.60;;
2658;SDS011;1339;53.304;10.406;2023-03-21T00:06:57;33.13;;;24.50;;
2658;SDS011;1339;53.304;10.406;2023-03-21T00:09:24;27.83;;;22.85;;
2658;SDS011;1339;53.304;10.406;2023-03-21T00:11:51;28.55;;;23.90;;
2658;SDS011;1339;53.304;10.406;2023-03-21T00:14:18;29.05;;;23.10;;
2658;SDS011;1339;53.304;10.406;2023-03-21T00:16:45;29.10;;;23.17;;
2658;SDS011;1339;53.304;10.406;2023-03-21T00:19:14;30.38;;;24.45;;
2658;SDS011;1339;53.304;10.406;2023-03-21T00:21:43;28.70;;;24.70;;
2658;SDS011;1339;53.304;10.406;2023-03-21T00:24:10;31.45;;;24.98;;
2658;SDS011;1339;53.304;10.406;2023-03-21T00:26:37;29.40;;;22.90;;
2658;SDS011;1339;53.304;10.406;2023-03-21T00:29:04;31.67;;;26.05;;
2658;SDS011;1339;53.304;10.406;2023-03-21T00:31:31;32.83;;;25.85;;
2658;SDS011;1339;53.304;10.406;2023-03-21T00:33:58;28.77;;;24.77;;
2658;SDS011;1339;53.304;10.406;2023-03-21T00:36:26;29.17;;;24.45;;
2658;SDS011;1339;53.304;10.406;2023-03-21T00:38:54;29.85;;;22.80;;
2658;SDS011;1339;53.304;10.406;2023-03-21T00:41:21;34.72;;;23.77;;
2658;SDS011;1339;53.304;10.406;2023-03-21T00:43:48;33.25;;;25.38;;
2658;SDS011;1339;53.304;10.406;2023-03-21T00:46:15;30.65;;;25.98;;
2658;SDS011;1339;53.304;10.406;2023-03-21T00:48:42;29.42;;;23.40;;
2658;SDS011;1339;53.304;10.406;2023-03-21T00:51:11;32.50;;;25.80;;
2658;SDS011;1339;53.304;10.406;2023-03-21T00:53:39;33.13;;;25.63;;
2658;SDS011;1339;53.304;10.406;2023-03-21T00:56:08;30.70;;;24.92;;
2658;SDS011;1339;53.304;10.406;2023-03-21T00:58:35;30.67;;;24.15;;
2658;SDS011;1339;53.304;10.406;2023-03-21T01:01:02;29.70;;;24.55;;
2658;SDS011;1339;53.304;10.406;2023-03-21T01:03:30;32.15;;;25.73;;
2658;SDS011;1339;53.304;10.406;2023-03-21T01:06:06;32.47;;;25.33;;
2658;SDS011;1339;53.304;10.406;2023-03-21T01:08:34;32.65;;;25.85;;
2658;SDS011;1339;53.304;10.406;2023-03-21T01:11:02;31.73;;;25.08;;
2658;SDS011;1339;53.304;10.406;2023-03-21T01:13:31;33.15;;;25.33;;
2658;SDS011;1339;53.304;10.406;2023-03-21T01:15:59;29.27;;;24.67;;
2658;SDS011;1339;53.304;10.406;2023-03-21T01:18:26;30.92;;;23.55;;
2658;SDS011;1339;53.304;10.406;2023-03-21T01:20:55;31.77;;;24.65;;
2658;SDS011;1339;53.304;10.406;2023-03-21T01:23:22;30.58;;;23.38;;
2658;SDS011;1339;53.304;10.406;2023-03-21T01:25:49;32.83;;;27.38;;
2658;SDS011;1339;53.304;10.406;2023-03-21T01:28:17;27.80;;;24.05;;
2658;SDS011;1339;53.304;10.406;2023-03-21T01:30:46;31.90;;;24.65;;
2658;SDS011;1339;53.304;10.406;2023-03-21T01:33:13;28.45;;;22.98;;
2658;SDS011;1339;53.304;10.406;2023-03-21T01:35:40;33.78;;;24.63;;
2658;SDS011;1339;53.304;10.406;2023-03-21T01:38:07;32.75;;;25.08;;
2658;SDS011;1339;53.304;10.406;2023-03-21T01:40:35;33.85;;;25.67;;
2658;SDS011;1339;53.304;10.406;2023-03-21T01:43:02;31.50;;;24.33;;
2658;SDS011;1339;53.304;10.406;2023-03-21T01:48:17;29.52;;;23.05;;
2658;SDS011;1339;53.304;10.406;2023-03-21T01:50:44;26.73;;;23.20;;
2658;SDS011;1339;53.304;10.406;2023-03-21T01:53:11;29.60;;;24.33;;
2658;SDS011;1339;53.304;10.406;2023-03-21T01:55:39;29.25;;;22.25;;
2658;SDS011;1339;53.304;10.406;2023-03-21T01:58:06;32.58;;;23.70;;
2658;SDS011;1339;53.304;10.406;2023-03-21T02:00:36;32.85;;;25.33;;
2658;SDS011;1339;53.304;10.406;2023-03-21T02:03:06;29.55;;;23.98;;
2658;SDS011;1339;53.304;10.406;2023-03-21T02:05:38;31.85;;;23.52;;
2658;SDS011;1339;53.304;10.406;2023-03-21T02:08:05;29.45;;;23.13;;
2658;SDS011;1339;53.304;10.406;2023-03-21T02:10:32;29.08;;;24.13;;
2658;SDS011;1339;53.304;10.406;2023-03-21T02:13:04;27.70;;;21.08;;
2658;SDS011;1339;53.304;10.406;2023-03-21T02:15:33;28.50;;;23.77;;
2658;SDS011;1339;53.304;10.406;2023-03-21T02:18:02;28.70;;;24.15;;
2658;SDS011;1339;53.304;10.406;2023-03-21T02:28:59;29.00;;;23.25;;
2658;SDS011;1339;53.304;10.406;2023-03-21T02:31:32;28.52;;;22.50;;
2658;SDS011;1339;53.304;10.406;2023-03-21T02:34:07;28.67;;;23.50;;
2658;SDS011;1339;53.304;10.406;2023-03-21T02:36:53;29.40;;;24.73;;
2658;SDS011;1339;53.304;10.406;2023-03-21T02:39:23;29.35;;;23.35;;
2658;SDS011;1339;53.304;10.406;2023-03-21T02:41:52;24.70;;;21.38;;
2658;SDS011;1339;53.304;10.406;2023-03-21T02:44:21;29.60;;;22.15;;
2658;SDS011;1339;53.304;10.406;2023-03-21T02:46:50;27.90;;;23.17;;
2658;SDS011;1339;53.304;10.406;2023-03-21T02:49:20;28.73;;;23.08;;
2658;SDS011;1339;53.304;10.406;2023-03-21T02:51:47;27.67;;;22.33;;
2658;SDS011;1339;53.304;10.406;2023-03-21T02:54:17;29.95;;;21.73;;
2658;SDS011;1339;53.304;10.406;2023-03-21T02:56:46;30.15;;;23.58;;
2658;SDS011;1339;53.304;10.406;2023-03-21T02:59:14;30.38;;;23.10;;
2658;SDS011;1339;53.304;10.406;2023-03-21T03:01:41;29.52;;;23.88;;
2658;SDS011;1339;53.304;10.406;2023-03-21T03:04:18;24.63;;;20.58;;
2658;SDS011;1339;53.304;10.406;2023-03-21T03:06:47;30.00;;;24.23;;
2658;SDS011;1339;53.304;10.406;2023-03-21T03:09:26;28.08;;;23.02;;
2658;SDS011;1339;53.304;10.406;2023-03-21T03:11:57;30.23;;;24.95;;
2658;SDS011;1339;53.304;10.406;2023-03-21T03:14:33;29.17;;;23.45;;
2658;SDS011;1339;53.304;10.406;2023-03-21T03:17:15;28.80;;;21.88;;
2658;SDS011;1339;53.304;10.406;2023-03-21T03:19:51;28.23;;;23.98;;
2658;SDS011;1339;53.304;10.406;2023-03-21T03:22:21;26.90;;;24.10;;
2658;SDS011;1339;53.304;10.406;2023-03-21T03:24:53;30.20;;;24.52;;
2658;SDS011;1339;53.304;10.406;2023-03-21T03:27:22;25.30;;;21.15;;
2658;SDS011;1339;53.304;10.406;2023-03-21T03:29:51;31.77;;;24.23;;
2658;SDS011;1339;53.304;10.406;2023-03-21T03:32:20;32.72;;;25.10;;
2658;SDS011;1339;53.304;10.406;2023-03-21T03:34:49;31.00;;;24.40;;
2658;SDS011;1339;53.304;10.406;2023-03-21T03:37:20;29.63;;;24.45;;
2658;SDS011;1339;53.304;10.406;2023-03-21T03:39:53;31.92;;;26.95;;
2658;SDS011;1339;53.304;10.406;2023-03-21T03:42:22;28.85;;;23.00;;
2658;SDS011;1339;53.304;10.406;2023-03-21T03:44:50;30.95;;;24.95;;
2658;SDS011;1339;53.304;10.406;2023-03-21T03:47:19;31.42;;;25.88;;
2658;SDS011;1339;53.304;10.406;2023-03-21T03:49:49;28.63;;;23.55;;
2658;SDS011;1339;53.304;10.406;2023-03-21T03:52:18;28.65;;;23.98;;
2658;SDS011;1339;53.304;10.406;2023-03-21T03:54:47;32.25;;;24.55;;
2658;SDS011;1339;53.304;10.406;2023-03-21T03:57:16;28.73;;;24.60;;
2658;SDS011;1339;53.304;10.406;2023-03-21T03:59:45;26.63;;;23.73;;
2658;SDS011;1339;53.304;10.406;2023-03-21T04:02:12;27.98;;;23.67;;
2658;SDS011;1339;53.304;10.406;2023-03-21T04:04:41;29.30;;;23.30;;
2658;SDS011;1339;53.304;10.406;2023-03-21T04:07:08;27.63;;;22.40;;
2658;SDS011;1339;53.304;10.406;2023-03-21T04:09:35;29.92;;;24.60;;
2658;SDS011;1339;53.304;10.406;2023-03-21T04:12:02;30.33;;;24.90;;
2658;SDS011;1339;53.304;10.406;2023-03-21T04:14:30;30.70;;;26.00;;
2658;SDS011;1339;53.304;10.406;2023-03-21T04:16:57;29.63;;;26.20;;
2658;SDS011;1339;53.304;10.406;2023-03-21T04:19:24;29.50;;;24.88;;
2658;SDS011;1339;53.304;10.406;2023-03-21T04:21:51;32.72;;;25.10;;
2658;SDS011;1339;53.304;10.406;2023-03-21T04:24:18;29.88;;;25.00;;
2658;SDS011;1339;53.304;10.406;2023-03-21T04:26:46;28.98;;;24.90;;
2658;SDS011;1339;53.304;10.406;2023-03-21T04:29:13;28.63;;;24.85;;
2658;SDS011;1339;53.304;10.406;2023-03-21T04:31:42;31.75;;;25.25;;
2658;SDS011;1339;53.304;10.406;2023-03-21T04:34:09;27.42;;;24.33;;
2658;SDS011;1339;53.304;10.406;2023-03-21T04:36:36;29.83;;;24.95;;
2658;SDS011;1339;53.304;10.406;2023-03-21T04:39:07;29.52;;;24.58;;
2658;SDS011;1339;53.304;10.406;2023-03-21T04:41:36;30.02;;;26.55;;
2658;SDS011;1339;53.304;10.406;2023-03-21T04:44:04;32.42;;;25.77;;
2658;SDS011;1339;53.304;10.406;2023-03-21T04:46:31;29.23;;;25.52;;
2658;SDS011;1339;53.304;10.406;2023-03-21T04:48:59;34.58;;;28.65;;
2658;SDS011;1339;53.304;10.406;2023-03-21T04:51:26;36.85;;;28.52;;
2658;SDS011;1339;53.304;10.406;2023-03-21T04:53:53;32.10;;;28.58;;
2658;SDS011;1339;53.304;10.406;2023-03-21T04:56:21;32.38;;;27.63;;
2658;SDS011;1339;53.304;10.406;2023-03-21T04:58:54;32.30;;;26.42;;
2658;SDS011;1339;53.304;10.406;2023-03-21T05:01:21;33.35;;;27.13;;
2658;SDS011;1339;53.304;10.406;2023-03-21T05:03:49;34.55;;;26.75;;
2658;SDS011;1339;53.304;10.406;2023-03-21T05:06:18;31.00;;;27.35;;
2658;SDS011;1339;53.304;10.406;2023-03-21T05:08:45;32.65;;;27.65;;
2658;SDS011;1339;53.304;10.406;2023-03-21T05:11:12;36.72;;;29.10;;
2658;SDS011;1339;53.304;10.406;2023-03-21T05:13:39;34.40;;;29.65;;
2658;SDS011;1339;53.304;10.406;2023-03-21T05:16:06;36.53;;;30.05;;
2658;SDS011;1339;53.304;10.406;2023-03-21T05:18:34;33.05;;;27.25;;
2658;SDS011;1339;53.304;10.406;2023-03-21T05:21:03;35.17;;;26.77;;
2658;SDS011;1339;53.304;10.406;2023-03-21T05:23:33;38.28;;;30.60;;
2658;SDS011;1339;53.304;10.406;2023-03-21T05:26:02;38.47;;;27.95;;
2658;SDS011;1339;53.304;10.406;2023-03-21T05:28:29;32.45;;;27.20;;
2658;SDS011;1339;53.304;10.406;2023-03-21T05:30:56;41.83;;;30.58;;
2658;SDS011;1339;53.304;10.406;2023-03-21T05:33:23;39.03;;;27.55;;
2658;SDS011;1339;53.304;10.406;2023-03-21T05:35:50;30.70;;;27.23;;
2658;SDS011;1339;53.304;10.406;2023-03-21T05:38:17;39.20;;;29.83;;
2658;SDS011;1339;53.304;10.406;2023-03-21T05:40:46;35.45;;;29.05;;
2658;SDS011;1339;53.304;10.406;2023-03-21T05:43:13;36.03;;;28.83;;
2658;SDS011;1339;53.304;10.406;2023-03-21T05:45:40;33.83;;;27.35;;
2658;SDS011;1339;53.304;10.406;2023-03-21T05:48:08;37.75;;;29.65;;
2658;SDS011;1339;53.304;10.406;2023-03-21T05:50:35;36.95;;;27.92;;
2658;SDS011;1339;53.304;10.406;2023-03-21T05:53:02;38.60;;;31.17;;
2658;SDS011;1339;53.304;10.406;2023-03-21T05:55:29;41.50;;;31.63;;
2658;SDS011;1339;53.304;10.406;2023-03-21T05:57:57;39.95;;;29.83;;
2658;SDS011;1339;53.304;10.406;2023-03-21T06:00:24;37.30;;;30.83;;
2658;SDS011;1339;53.304;10.406;2023-03-21T06:02:51;38.50;;;30.10;;
2658;SDS011;1339;53.304;10.406;2023-03-21T06:05:18;35.08;;;29.63;;
2658;SDS011;1339;53.304;10.406;2023-03-21T06:07:45;41.25;;;31.77;;
2658;SDS011;1339;53.304;10.406;2023-03-21T06:10:12;36.80;;;28.17;;
2658;SDS011;1339;53.304;10.406;2023-03-21T06:12:39;44.25;;;32.85;;
2658;SDS011;1339;53.304;10.406;2023-03-21T06:15:09;43.63;;;33.40;;
2658;SDS011;1339;53.304;10.406;2023-03-21T06:17:36;44.42;;;34.55;;
2658;SDS011;1339;53.304;10.406;2023-03-21T06:20:03;38.47;;;30.20;;
2658;SDS011;1339;53.304;10.406;2023-03-21T06:22:31;41.92;;;33.25;;
2658;SDS011;1339;53.304;10.406;2023-03-21T06:24:58;42.38;;;33.38;;
2658;SDS011;1339;53.304;10.406;2023-03-21T06:27:25;44.70;;;31.88;;
2658;SDS011;1339;53.304;10.406;2023-03-21T06:29:52;41.75;;;31.67;;
2658;SDS011;1339;53.304;10.406;2023-03-21T06:32:20;38.63;;;32.83;;
2658;SDS011;1339;53.304;10.406;2023-03-21T06:34:47;39.05;;;31.92;;
2658;SDS011;1339;53.304;10.406;2023-03-21T06:37:14;40.15;;;31.77;;
2658;SDS011;1339;53.304;10.406;2023-03-21T06:39:41;41.15;;;32.05;;
2658;SDS011;1339;53.304;10.406;2023-03-21T06:42:08;43.72;;;33.92;;
2658;SDS011;1339;53.304;10.406;2023-03-21T06:44:35;41.78;;;33.88;;
2658;SDS011;1339;53.304;10.406;2023-03-21T06:47:02;43.83;;;34.70;;
2658;SDS011;1339;53.304;10.406;2023-03-21T06:49:30;43.67;;;32.13;;
2658;SDS011;1339;53.304;10.406;2023-03-21T06:51:57;40.40;;;31.83;;
2658;SDS011;1339;53.304;10.406;2023-03-21T06:54:24;37.92;;;31.75;;
2658;SDS011;1339;53.304;10.406;2023-03-21T06:56:51;42.92;;;34.92;;
2658;SDS011;1339;53.304;10.406;2023-03-21T06:59:19;46.20;;;34.88;;
2658;SDS011;1339;53.304;10.406;2023-03-21T07:01:46;42.85;;;32.90;;
2658;SDS011;1339;53.304;10.406;2023-03-21T07:04:13;43.90;;;34.00;;
2658;SDS011;1339;53.304;10.406;2023-03-21T07:06:42;43.92;;;33.13;;
2658;SDS011;1339;53.304;10.406;2023-03-21T07:09:09;40.03;;;32.28;;
2658;SDS011;1339;53.304;10.406;2023-03-21T07:11:36;40.90;;;33.92;;
2658;SDS011;1339;53.304;10.406;2023-03-21T07:14:03;45.42;;;34.13;;
2658;SDS011;1339;53.304;10.406;2023-03-21T07:16:30;39.75;;;34.60;;
2658;SDS011;1339;53.304;10.406;2023-03-21T07:18:57;40.42;;;34.20;;
2658;SDS011;1339;53.304;10.406;2023-03-21T07:21:24;43.78;;;34.58;;
2658;SDS011;1339;53.304;10.406;2023-03-21T07:23:53;41.97;;;33.40;;
2658;SDS011;1339;53.304;10.406;2023-03-21T07:26:20;41.05;;;34.63;;
2658;SDS011;1339;53.304;10.406;2023-03-21T07:28:47;44.13;;;35.08;;
2658;SDS011;1339;53.304;10.406;2023-03-21T07:31:14;40.58;;;32.45;;
2658;SDS011;1339;53.304;10.406;2023-03-21T07:33:43;39.35;;;32.65;;
2658;SDS011;1339;53.304;10.406;2023-03-21T07:36:13;42.92;;;33.63;;
2658;SDS011;1339;53.304;10.406;2023-03-21T07:38:41;43.40;;;35.08;;
2658;SDS011;1339;53.304;10.406;2023-03-21T07:41:09;41.85;;;33.92;;
2658;SDS011;1339;53.304;10.406;2023-03-21T07:43:36;38.05;;;29.70;;
2658;SDS011;1339;53.304;10.406;2023-03-21T07:46:03;41.15;;;33.08;;
2658;SDS011;1339;53.304;10.406;2023-03-21T07:48:30;45.13;;;32.55;;
2658;SDS011;1339;53.304;10.406;2023-03-21T07:50:57;41.10;;;33.50;;
2658;SDS011;1339;53.304;10.406;2023-03-21T07:53:26;45.05;;;31.92;;
2658;SDS011;1339;53.304;10.406;2023-03-21T07:55:53;43.25;;;33.38;;
2658;SDS011;1339;53.304;10.406;2023-03-21T07:58:22;42.05;;;32.55;;
2658;SDS011;1339;53.304;10.406;2023-03-21T08:00:52;42.97;;;31.25;;
2658;SDS011;1339;53.304;10.406;2023-03-21T08:03:20;37.50;;;30.92;;
2658;SDS011;1339;53.304;10.406;2023-03-21T08:05:50;36.33;;;30.10;;
2658;SDS011;1339;53.304;10.406;2023-03-21T08:08:17;42.47;;;32.30;;
2658;SDS011;1339;53.304;10.406;2023-03-21T08:10:44;37.45;;;29.63;;
2658;SDS011;1339;53.304;10.406;2023-03-21T08:13:11;34.78;;;29.85;;
2658;SDS011;1339;53.304;10.406;2023-03-21T08:15:39;34.25;;;28.85;;
2658;SDS011;1339;53.304;10.406;2023-03-21T08:18:06;35.50;;;31.40;;
2658;SDS011;1339;53.304;10.406;2023-03-21T08:20:33;37.30;;;30.48;;
2658;SDS011;1339;53.304;10.406;2023-03-21T08:23:00;35.55;;;28.55;;
2658;SDS011;1339;53.304;10.406;2023-03-21T08:25:27;36.30;;;28.05;;
2658;SDS011;1339;53.304;10.406;2023-03-21T08:27:54;36.15;;;27.70;;
2658;SDS011;1339;53.304;10.406;2023-03-21T08:30:22;37.53;;;27.35;;
2658;SDS011;1339;53.304;10.406;2023-03-21T08:32:54;33.42;;;26.85;;
2658;SDS011;1339;53.304;10.406;2023-03-21T08:35:21;37.60;;;30.27;;
2658;SDS011;1339;53.304;10.406;2023-03-21T08:37:49;29.08;;;25.60;;
2658;SDS011;1339;53.304;10.406;2023-03-21T08:40:16;29.48;;;25.13;;
2658;SDS011;1339;53.304;10.406;2023-03-21T08:42:44;31.05;;;27.55;;
2658;SDS011;1339;53.304;10.406;2023-03-21T08:45:12;32.15;;;26.50;;
2658;SDS011;1339;53.304;10.406;2023-03-21T08:47:39;26.48;;;22.15;;
2658;SDS011;1339;53.304;10.406;2023-03-21T08:50:08;25.02;;;22.20;;
2658;SDS011;1339;53.304;10.406;2023-03-21T08:52:37;26.13;;;22.58;;
2658;SDS011;1339;53.304;10.406;2023-03-21T08:55:04;24.63;;;22.02;;
2658;SDS011;1339;53.304;10.406;2023-03-21T08:57:32;25.52;;;22.77;;
2658;SDS011;1339;53.304;10.406;2023-03-21T08:59:58;23.85;;;21.33;;
2658;SDS011;1339;53.304;10.406;2023-03-21T09:02:25;27.08;;;20.70;;
2658;SDS011;1339;53.304;10.406;2023-03-21T09:04:52;23.65;;;20.00;;
2658;SDS011;1339;53.304;10.406;2023-03-21T09:07:24;23.42;;;19.55;;
2658;SDS011;1339;53.304;10.406;2023-03-21T09:09:51;25.38;;;20.58;;
2658;SDS011;1339;53.304;10.406;2023-03-21T09:12:18;23.80;;;20.17;;
2658;SDS011;1339;53.304;10.406;2023-03-21T09:14:45;20.00;;;17.90;;
2658;SDS011;1339;53.304;10.406;2023-03-21T09:17:12;24.05;;;21.65;;
2658;SDS011;1339;53.304;10.406;2023-03-21T09:19:39;23.85;;;20.17;;
2658;SDS011;1339;53.304;10.406;2023-03-21T09:22:06;22.05;;;18.85;;
2658;SDS011;1339;53.304;10.406;2023-03-21T09:24:39;23.85;;;21.33;;
2658;SDS011;1339;53.304;10.406;2023-03-21T09:27:06;24.10;;;19.90;;
2658;SDS011;1339;53.304;10.406;2023-03-21T09:29:34;23.17;;;20.50;;
2658;SDS011;1339;53.304;10.406;2023-03-21T09:32:02;27.17;;;23.40;;
2658;SDS011;1339;53.304;10.406;2023-03-21T09:34:30;23.45;;;20.10;;
2658;SDS011;1339;53.304;10.406;2023-03-21T09:36:58;24.88;;;20.65;;
2658;SDS011;1339;53.304;10.406;2023-03-21T09:39:26;24.02;;;20.48;;
2658;SDS011;1339;53.304;10.406;2023-03-21T09:42:00;28.08;;;23.35;;
2658;SDS011;1339;53.304;10.406;2023-03-21T09:44:33;32.05;;;25.55;;
2658;SDS011;1339;53.304;10.406;2023-03-21T09:47:05;25.17;;;21.42;;
2658;SDS011;1339;53.304;10.406;2023-03-21T09:49:38;30.15;;;23.40;;
2658;SDS011;1339;53.304;10.406;2023-03-21T09:52:09;29.67;;;25.65;;
2658;SDS011;1339;53.304;10.406;2023-03-21T09:54:38;29.13;;;23.92;;
2658;SDS011;1339;53.304;10.406;2023-03-21T09:57:10;26.65;;;22.40;;
2658;SDS011;1339;53.304;10.406;2023-03-21T09:59:40;29.15;;;24.13;;
2658;SDS011;1339;53.304;10.406;2023-03-21T10:02:14;30.90;;;22.88;;
2658;SDS011;1339;53.304;10.406;2023-03-21T10:04:45;31.35;;;25.15;;
2658;SDS011;1339;53.304;10.406;2023-03-21T10:07:13;30.35;;;23.08;;
2658;SDS011;1339;53.304;10.406;2023-03-21T10:09:42;29.27;;;23.55;;
2658;SDS011;1339;53.304;10.406;2023-03-21T10:12:13;29.67;;;23.60;;
2658;SDS011;1339;53.304;10.406;2023-03-21T10:14:43;29.98;;;22.17;;
2658;SDS011;1339;53.304;10.406;2023-03-21T10:17:14;29.30;;;24.20;;
2658;SDS011;1339;53.304;10.406;2023-03-21T10:19:43;25.42;;;21.90;;
2658;SDS011;1339;53.304;10.406;2023-03-21T10:22:12;30.25;;;23.17;;
2658;SDS011;1339;53.304;10.406;2023-03-21T10:24:39;27.45;;;20.13;;
2658;SDS011;1339;53.304;10.406;2023-03-21T10:27:06;24.42;;;20.33;;
2658;SDS011;1339;53.304;10.406;2023-03-21T10:29:36;21.45;;;17.73;;
2658;SDS011;1339;53.304;10.406;2023-03-21T10:32:06;21.88;;;19.58;;
2658;SDS011;1339;53.304;10.406;2023-03-21T10:34:35;23.33;;;18.98;;
2658;SDS011;1339;53.304;10.406;2023-03-21T10:37:03;28.77;;;21.58;;
2658;SDS011;1339;53.304;10.406;2023-03-21T10:39:31;26.83;;;21.70;;
2658;SDS011;1339;53.304;10.406;2023-03-21T10:41:59;22.88;;;18.98;;
2658;SDS011;1339;53.304;10.406;2023-03-21T10:44:28;22.15;;;19.83;;
2658;SDS011;1339;53.304;10.406;2023-03-21T10:46:57;20.05;;;17.33;;
2658;SDS011;1339;53.304;10.406;2023-03-21T10:49:24;23.63;;;19.65;;
2658;SDS011;1339;53.304;10.406;2023-03-21T10:51:52;23.90;;;20.08;;
2658;SDS011;1339;53.304;10.406;2023-03-21T10:54:20;21.05;;;18.95;;
2658;SDS011;1339;53.304;10.406;2023-03-21T10:56:51;23.52;;;19.63;;
2658;SDS011;1339;53.304;10.406;2023-03-21T10:59:19;22.77;;;19.00;;
2658;SDS011;1339;53.304;10.406;2023-03-21T11:01:47;24.58;;;21.35;;
2658;SDS011;1339;53.304;10.406;2023-03-21T11:04:17;21.50;;;19.15;;
2658;SDS011;1339;53.304;10.406;2023-03-21T11:06:45;20.83;;;18.48;;
2658;SDS011;1339;53.304;10.406;2023-03-21T11:09:16;22.92;;;20.00;;
2658;SDS011;1339;53.304;10.406;2023-03-21T11:11:48;21.70;;;19.50;;
2658;SDS011;1339;53.304;10.406;2023-03-21T11:14:24;30.42;;;20.92;;
2658;SDS011;1339;53.304;10.406;2023-03-21T11:16:51;24.45;;;18.73;;
2658;SDS011;1339;53.304;10.406;2023-03-21T11:19:25;24.75;;;20.77;;
2658;SDS011;1339;53.304;10.406;2023-03-21T11:21:52;21.02;;;18.38;;
2658;SDS011;1339;53.304;10.406;2023-03-21T11:24:19;24.65;;;18.08;;
2658;SDS011;1339;53.304;10.406;2023-03-21T11:26:46;21.35;;;17.42;;
2658;SDS011;1339;53.304;10.406;2023-03-21T11:29:19;24.17;;;18.25;;
2658;SDS011;1339;53.304;10.406;2023-03-21T11:31:47;26.17;;;19.92;;
2658;SDS011;1339;53.304;10.406;2023-03-21T11:34:22;22.40;;;19.55;;
2658;SDS011;1339;53.304;10.406;2023-03-21T11:36:51;25.17;;;18.80;;
2658;SDS011;1339;53.304;10.406;2023-03-21T11:39:26;23.75;;;19.50;;
2658;SDS011;1339;53.304;10.406;2023-03-21T11:41:54;28.73;;;18.55;;
2658;SDS011;1339;53.304;10.406;2023-03-21T11:44:26;23.02;;;18.60;;
2658;SDS011;1339;53.304;10.406;2023-03-21T11:46:53;22.33;;;18.80;;
2658;SDS011;1339;53.304;10.406;2023-03-21T11:49:22;26.13;;;20.88;;
2658;SDS011;1339;53.304;10.406;2023-03-21T11:51:51;20.77;;;18.05;;
2658;SDS011;1339;53.304;10.406;2023-03-21T11:54:20;23.33;;;17.58;;
2658;SDS011;1339;53.304;10.406;2023-03-21T11:56:50;22.17;;;18.73;;
2658;SDS011;1339;53.304;10.406;2023-03-21T11:59:25;22.67;;;18.08;;
2658;SDS011;1339;53.304;10.406;2023-03-21T12:01:59;27.92;;;18.30;;
2658;SDS011;1339;53.304;10.406;2023-03-21T12:04:34;19.38;;;17.27;;
2658;SDS011;1339;53.304;10.406;2023-03-21T12:07:08;25.75;;;17.75;;
2658;SDS011;1339;53.304;10.406;2023-03-21T12:09:39;24.10;;;17.98;;
2658;SDS011;1339;53.304;10.406;2023-03-21T12:12:10;25.73;;;16.95;;
2658;SDS011;1339;53.304;10.406;2023-03-21T12:14:44;21.25;;;17.45;;
2658;SDS011;1339;53.304;10.406;2023-03-21T12:17:16;22.88;;;18.08;;
2658;SDS011;1339;53.304;10.406;2023-03-21T12:19:47;20.10;;;16.58;;
2658;SDS011;1339;53.304;10.406;2023-03-21T12:22:19;20.60;;;17.38;;
2658;SDS011;1339;53.304;10.406;2023-03-21T12:24:49;22.10;;;16.65;;
2658;SDS011;1339;53.304;10.406;2023-03-21T12:27:19;23.17;;;16.77;;
2658;SDS011;1339;53.304;10.406;2023-03-21T12:29:53;20.08;;;16.55;;
2658;SDS011;1339;53.304;10.406;2023-03-21T12:32:28;22.02;;;15.85;;
2658;SDS011;1339;53.304;10.406;2023-03-21T12:35:07;20.85;;;15.52;;
2658;SDS011;1339;53.304;10.406;2023-03-21T12:37:40;18.85;;;16.08;;
2658;SDS011;1339;53.304;10.406;2023-03-21T12:40:11;18.35;;;16.23;;
2658;SDS011;1339;53.304;10.406;2023-03-21T12:42:58;18.55;;;15.35;;
2658;SDS011;1339;53.304;10.406;2023-03-21T12:45:28;15.98;;;13.82;;
2658;SDS011;1339;53.304;10.406;2023-03-21T12:47:58;16.10;;;13.82;;
2658;SDS011;1339;53.304;10.406;2023-03-21T12:50:28;17.35;;;15.23;;
2658;SDS011;1339;53.304;10.406;2023-03-21T12:53:13;18.90;;;15.77;;
2658;SDS011;1339;53.304;10.406;2023-03-21T12:55:43;17.45;;;15.45;;
2658;SDS011;1339;53.304;10.406;2023-03-21T12:58:13;16.33;;;14.63;;
2658;SDS011;1339;53.304;10.406;2023-03-21T13:00:43;14.73;;;12.60;;
2658;SDS011;1339;53.304;10.406;2023-03-21T13:03:11;17.25;;;14.07;;
2658;SDS011;1339;53.304;10.406;2023-03-21T13:05:43;17.60;;;14.45;;
2658;SDS011;1339;53.304;10.406;2023-03-21T13:08:12;17.65;;;14.55;;
2658;SDS011;1339;53.304;10.406;2023-03-21T13:10:42;15.88;;;14.10;;
2658;SDS011;1339;53.304;10.406;2023-03-21T13:13:11;20.75;;;15.00;;
2658;SDS011;1339;53.304;10.406;2023-03-21T13:15:51;22.85;;;15.23;;
2658;SDS011;1339;53.304;10.406;2023-03-21T13:18:24;16.17;;;12.20;;
2658;SDS011;1339;53.304;10.406;2023-03-21T13:20:57;15.52;;;13.68;;
2658;SDS011;1339;53.304;10.406;2023-03-21T13:23:27;17.25;;;14.13;;
2658;SDS011;1339;53.304;10.406;2023-03-21T13:25:58;14.57;;;13.20;;
2658;SDS011;1339;53.304;10.406;2023-03-21T13:28:26;14.07;;;12.70;;
2658;SDS011;1339;53.304;10.406;2023-03-21T13:31:03;19.27;;;14.10;;
2658;SDS011;1339;53.304;10.406;2023-03-21T13:33:40;14.52;;;11.60;;
2658;SDS011;1339;53.304;10.406;2023-03-21T13:36:12;13.93;;;12.48;;
2658;SDS011;1339;53.304;10.406;2023-03-21T13:38:40;15.07;;;13.35;;
2658;SDS011;1339;53.304;10.406;2023-03-21T13:41:08;14.73;;;13.13;;
2658;SDS011;1339;53.304;10.406;2023-03-21T13:43:40;16.83;;;13.93;;
2658;SDS011;1339;53.304;10.406;2023-03-21T13:46:08;15.40;;;13.77;;
2658;SDS011;1339;53.304;10.406;2023-03-21T13:48:40;14.15;;;11.90;;
2658;SDS011;1339;53.304;10.406;2023-03-21T13:51:07;14.20;;;12.70;;
2658;SDS011;1339;53.304;10.406;2023-03-21T13:53:36;14.10;;;12.70;;
2658;SDS011;1339;53.304;10.406;2023-03-21T13:56:20;14.25;;;12.85;;
2658;SDS011;1339;53.304;10.406;2023-03-21T14:01:33;17.80;;;12.93;;
2658;SDS011;1339;53.304;10.406;2023-03-21T14:04:05;14.80;;;13.30;;
2658;SDS011;1339;53.304;10.406;2023-03-21T14:06:37;15.52;;;13.02;;
2658;SDS011;1339;53.304;10.406;2023-03-21T14:09:06;18.92;;;14.65;;
2658;SDS011;1339;53.304;10.406;2023-03-21T14:11:34;15.70;;;13.63;;
2658;SDS011;1339;53.304;10.406;2023-03-21T14:14:01;17.08;;;12.93;;
2658;SDS011;1339;53.304;10.406;2023-03-21T14:16:29;18.02;;;13.68;;
2658;SDS011;1339;53.304;10.406;2023-03-21T14:18:58;15.90;;;14.23;;
2658;SDS011;1339;53.304;10.406;2023-03-21T14:21:26;14.85;;;13.00;;
2658;SDS011;1339;53.304;10.406;2023-03-21T14:23:54;14.80;;;13.23;;
2658;SDS011;1339;53.304;10.406;2023-03-21T14:26:23;18.33;;;12.85;;
2658;SDS011;1339;53.304;10.406;2023-03-21T14:28:50;13.00;;;11.23;;
2658;SDS011;1339;53.304;10.406;2023-03-21T14:31:17;15.43;;;13.10;;
2658;SDS011;1339;53.304;10.406;2023-03-21T14:33:45;14.70;;;13.13;;
2658;SDS011;1339;53.304;10.406;2023-03-21T14:36:14;13.98;;;12.65;;
2658;SDS011;1339;53.304;10.406;2023-03-21T14:38:42;16.23;;;13.38;;
2658;SDS011;1339;53.304;10.406;2023-03-21T14:41:18;14.02;;;12.48;;
2658;SDS011;1339;53.304;10.406;2023-03-21T14:44:00;15.95;;;13.38;;
2658;SDS011;1339;53.304;10.406;2023-03-21T14:46:27;18.13;;;14.13;;
2658;SDS011;1339;53.304;10.406;2023-03-21T14:48:54;21.50;;;15.38;;
2658;SDS011;1339;53.304;10.406;2023-03-21T14:51:35;17.15;;;14.05;;
2658;SDS011;1339;53.304;10.406;2023-03-21T14:54:03;18.00;;;14.57;;
2658;SDS011;1339;53.304;10.406;2023-03-21T14:56:30;18.65;;;13.40;;
2658;SDS011;1339;53.304;10.406;2023-03-21T14:58:58;18.20;;;14.95;;